Time;durP1;ratioP1;P1;durP2;ratioP2;P2;SDS_P1;SDS_P2;PMS_P1;PMS_P2;Temp;Humidity;BMP_temperature;BMP_pressure;BME280_temperature;BME280_humidity;BME280_pressure;Samples;Min_cycle;Max_cycle;Signal;HPM_P1;HPM_P2
2021/06/01 00:01:02;;;;;;;3.63;2.20;;;18.20;71.20;;;;;;4119438;28;20043;-84
2021/06/01 00:03:03;;;;;;;3.63;2.00;;;18.20;70.60;;;;;;4124344;28;20423;-84
2021/06/01 00:05:06;;;;;;;3.35;1.55;;;18.10;70.60;;;;;;4120824;28;20042;-84
2021/06/01 00:07:06;;;;;;;2.75;1.98;;;18.10;71.50;;;;;;4133783;28;25145;-84
2021/06/01 00:09:10;;;;;;;2.75;1.85;;;18.10;72.90;;;;;;4123839;28;20042;-84
2021/06/01 00:11:12;;;;;;;3.35;2.05;;;18.10;73.30;;;;;;4140695;28;20049;-84
2021/06/01 00:13:13;;;;;;;2.28;1.50;;;18.10;74.20;;;;;;4137044;28;20038;-84
2021/06/01 00:15:13;;;;;;;4.72;1.92;;;18.00;72.20;;;;;;4139837;28;20135;-84
2021/06/01 00:17:14;;;;;;;5.13;1.98;;;18.00;73.80;;;;;;4122195;28;20629;-84
2021/06/01 00:19:15;;;;;;;3.90;2.03;;;18.00;74.20;;;;;;4140963;28;20117;-84
2021/06/01 00:21:16;;;;;;;3.20;2.08;;;18.00;73.70;;;;;;4127110;28;20030;-84
2021/06/01 00:23:17;;;;;;;3.15;1.80;;;18.00;74.50;;;;;;4139645;28;20511;-84
2021/06/01 00:25:17;;;;;;;4.43;2.50;;;18.00;75.10;;;;;;4120674;28;20564;-84
2021/06/01 00:27:18;;;;;;;3.33;1.80;;;18.00;75.00;;;;;;4120958;28;20034;-84
2021/06/01 00:29:18;;;;;;;2.90;1.60;;;17.90;77.10;;;;;;4123237;28;20030;-84
2021/06/01 00:31:19;;;;;;;5.85;2.17;;;17.90;75.90;;;;;;4138195;28;20140;-84
2021/06/01 00:33:20;;;;;;;3.35;1.98;;;17.80;74.50;;;;;;4138916;28;20449;-84
2021/06/01 00:35:20;;;;;;;3.55;2.08;;;17.80;75.00;;;;;;4124432;28;20037;-84
2021/06/01 00:37:21;;;;;;;3.53;1.95;;;17.80;74.80;;;;;;4117925;28;20054;-84
2021/06/01 00:39:22;;;;;;;4.18;2.03;;;17.80;76.30;;;;;;4116336;28;20657;-84
2021/06/01 00:41:22;;;;;;;3.13;1.70;;;17.80;78.30;;;;;;4119882;28;20061;-84
2021/06/01 00:43:23;;;;;;;3.60;2.03;;;17.70;76.20;;;;;;4135633;28;20041;-84
2021/06/01 00:45:26;;;;;;;3.05;2.00;;;17.70;76.60;;;;;;4132413;28;20042;-84
2021/06/01 00:47:26;;;;;;;3.33;1.95;;;17.70;76.90;;;;;;4117382;28;20113;-84
2021/06/01 00:49:27;;;;;;;3.80;1.98;;;17.70;76.90;;;;;;4110939;28;20113;-84
2021/06/01 00:51:30;;;;;;;3.47;2.10;;;17.60;77.50;;;;;;4131447;28;20494;-85
2021/06/01 00:53:31;;;;;;;;;;;17.60;77.60;;;;;;4119995;28;20153;-85
2021/06/01 00:55:31;;;;;;;4.20;2.30;;;17.60;77.50;;;;;;4136765;28;19913;-85
2021/06/01 00:57:32;;;;;;;4.28;2.15;;;17.60;79.80;;;;;;4131828;28;20057;-84
2021/06/01 00:59:33;;;;;;;3.65;1.67;;;17.60;78.40;;;;;;4118658;28;20493;-84
2021/06/01 01:01:34;;;;;;;3.47;1.83;;;17.60;77.50;;;;;;4136516;28;20040;-84
2021/06/01 01:03:36;;;;;;;3.70;2.22;;;17.50;76.90;;;;;;4113767;28;20134;-84
2021/06/01 01:05:43;;;;;;;3.60;2.13;;;17.50;78.10;;;;;;4147063;28;20052;-84
2021/06/01 01:10:21;;;;;;;3.05;2.00;;;17.40;77.50;;;;;;4097503;28;20088;-84
2021/06/01 01:12:26;;;;;;;3.60;2.38;;;17.30;77.80;;;;;;4140806;28;20121;-84
2021/06/01 01:14:31;;;;;;;3.03;2.03;;;17.30;77.90;;;;;;4119826;28;20623;-84
2021/06/01 01:16:33;;;;;;;5.80;2.30;;;17.30;78.40;;;;;;4131970;28;20034;-84
2021/06/01 01:18:34;;;;;;;2.22;1.80;;;17.20;79.10;;;;;;4134500;28;20030;-84
2021/06/01 01:21:03;;;;;;;5.03;2.27;;;17.20;78.70;;;;;;4135429;28;20038;-84
2021/06/01 01:23:18;;;;;;;4.25;2.38;;;17.10;79.80;;;;;;4139468;28;20049;-84
2021/06/01 01:25:33;;;;;;;3.42;2.13;;;17.10;79.10;;;;;;4141497;28;20515;-84
2021/06/01 01:28:02;;;;;;;4.55;2.47;;;17.00;79.20;;;;;;4137722;28;20390;-84
2021/06/01 01:30:06;;;;;;;4.50;2.70;;;17.00;79.40;;;;;;4125704;28;20030;-84
2021/06/01 01:32:17;;;;;;;3.60;2.33;;;17.00;80.40;;;;;;4140715;28;20124;-84
2021/06/01 01:34:19;;;;;;;4.45;2.30;;;16.90;80.00;;;;;;4137987;28;20549;-84
2021/06/01 01:36:20;;;;;;;4.90;2.47;;;16.90;80.50;;;;;;4142147;28;20518;-84
2021/06/01 01:38:23;;;;;;;4.47;2.20;;;16.80;81.10;;;;;;4125426;28;20027;-84
2021/06/01 01:40:25;;;;;;;3.28;2.17;;;16.80;81.00;;;;;;4125262;28;20564;-84
2021/06/01 01:42:40;;;;;;;3.42;2.20;;;16.70;81.20;;;;;;4139084;28;20081;-84
2021/06/01 01:44:49;;;;;;;3.22;2.17;;;16.70;81.80;;;;;;4126822;28;20506;-84
2021/06/01 01:46:59;;;;;;;3.22;2.15;;;16.60;82.10;;;;;;4116916;28;20105;-84
2021/06/01 01:49:02;;;;;;;4.15;1.90;;;16.50;81.80;;;;;;4140423;28;20045;-84
2021/06/01 01:51:11;;;;;;;;;;;16.50;83.80;;;;;;4135148;28;20031;-84
2021/06/01 01:53:17;;;;;;;3.63;2.13;;;16.50;85.30;;;;;;4135765;28;20512;-84
2021/06/01 01:55:18;;;;;;;4.07;2.28;;;16.50;84.40;;;;;;4119848;28;20037;-84
2021/06/01 01:57:19;;;;;;;3.30;2.17;;;16.50;84.80;;;;;;4117748;28;20081;-84
2021/06/01 01:59:23;;;;;;;5.10;2.33;;;16.50;85.30;;;;;;4135943;28;20453;-84
2021/06/01 02:01:25;;;;;;;4.78;2.08;;;16.50;86.80;;;;;;4118954;28;20097;-84
2021/06/01 02:03:26;;;;;;;4.60;2.30;;;16.50;87.70;;;;;;4141077;28;20053;-84
2021/06/01 02:05:27;;;;;;;3.22;2.25;;;16.50;88.50;;;;;;4118495;28;20156;-84
2021/06/01 02:07:31;;;;;;;3.85;2.45;;;16.50;88.80;;;;;;4138306;28;20034;-84
2021/06/01 02:09:32;;;;;;;3.50;2.28;;;16.50;88.90;;;;;;4138841;28;20049;-84
2021/06/01 02:11:34;;;;;;;3.58;1.88;;;16.50;88.70;;;;;;4134126;28;20037;-84
2021/06/01 02:13:51;;;;;;;3.50;2.17;;;16.50;90.80;;;;;;4141139;28;20469;-84
2021/06/01 02:15:51;;;;;;;5.10;2.20;;;16.50;88.50;;;;;;4119838;28;20079;-84
2021/06/01 02:17:52;;;;;;;4.25;2.13;;;16.50;90.10;;;;;;4121253;28;20206;-84
2021/06/01 02:19:53;;;;;;;4.45;2.60;;;16.50;90.70;;;;;;4123710;28;20368;-84
2021/06/01 02:22:27;;;;;;;3.35;2.20;;;16.40;91.00;;;;;;4118340;28;20057;-84
2021/06/01 02:24:36;;;;;;;2.95;2.00;;;16.40;90.50;;;;;;4135998;28;20579;-85
2021/06/01 02:27:12;;;;;;;3.95;2.22;;;16.40;89.20;;;;;;4119183;28;20677;-84
2021/06/01 02:29:23;;;;;;;3.42;2.47;;;16.40;90.60;;;;;;4136820;28;20450;-84
2021/06/01 02:31:34;;;;;;;4.15;2.40;;;16.40;90.70;;;;;;4137933;28;20460;-84
2021/06/01 02:33:37;;;;;;;4.25;2.10;;;16.40;90.20;;;;;;4120695;28;20039;-85
2021/06/01 02:35:40;;;;;;;3.97;2.33;;;16.30;90.70;;;;;;4117799;28;20026;-85
2021/06/01 02:37:43;;;;;;;4.40;2.33;;;16.30;90.90;;;;;;4121612;28;20432;-85
2021/06/01 02:39:47;;;;;;;2.80;2.13;;;16.20;91.20;;;;;;4118352;28;20043;-84
2021/06/01 02:41:49;;;;;;;3.60;2.42;;;16.20;92.00;;;;;;4121223;28;20043;-84
2021/06/01 02:43:50;;;;;;;;;;;16.20;91.10;;;;;;4123603;28;20038;-84
2021/06/01 02:45:51;;;;;;;3.80;2.35;;;16.10;91.60;;;;;;4137836;28;20001;-84
2021/06/01 02:47:52;;;;;;;7.55;2.38;;;16.10;91.60;;;;;;4115926;28;20035;-84
2021/06/01 02:49:54;;;;;;;3.63;2.10;;;16.10;91.30;;;;;;4113037;28;20138;-84
2021/06/01 02:51:55;;;;;;;6.72;2.22;;;16.00;91.50;;;;;;4125573;28;20045;-84
2021/06/01 02:53:57;;;;;;;5.80;2.33;;;16.00;91.80;;;;;;4138017;28;20038;-85
2021/06/01 02:55:58;;;;;;;2.63;2.25;;;16.00;92.80;;;;;;4140435;28;20133;-85
2021/06/01 02:57:59;;;;;;;3.38;2.25;;;15.90;92.70;;;;;;4131037;28;20042;-84
2021/06/01 03:00:00;;;;;;;3.88;2.30;;;15.90;94.80;;;;;;4133739;28;20040;-84
2021/06/01 03:02:01;;;;;;;3.50;2.20;;;15.90;93.50;;;;;;4136511;28;20553;-84
2021/06/01 03:04:05;;;;;;;3.10;2.28;;;15.90;94.00;;;;;;4123960;28;20045;-84
2021/06/01 03:06:06;;;;;;;3.42;2.38;;;15.90;94.80;;;;;;4124645;28;20045;-84
2021/06/01 03:08:11;;;;;;;2.45;2.22;;;15.90;94.90;;;;;;4146668;28;20033;-84
2021/06/01 03:10:13;;;;;;;4.25;2.70;;;15.80;95.10;;;;;;4137434;28;20092;-84
2021/06/01 03:12:23;;;;;;;4.45;2.33;;;15.80;95.80;;;;;;4124403;28;20042;-84
2021/06/01 03:14:24;;;;;;;3.03;2.22;;;15.80;96.80;;;;;;4125555;28;20042;-84
2021/06/01 03:16:24;;;;;;;3.72;2.40;;;15.70;95.40;;;;;;4122255;28;20494;-85
2021/06/01 03:18:25;;;;;;;4.80;2.60;;;15.80;96.80;;;;;;4122060;28;20039;-84
2021/06/01 03:20:26;;;;;;;5.10;2.53;;;15.70;96.30;;;;;;4122794;28;20095;-84
2021/06/01 03:22:26;;;;;;;3.88;2.42;;;15.70;95.90;;;;;;4123861;28;20077;-84
2021/06/01 03:24:27;;;;;;;6.40;2.75;;;15.70;95.60;;;;;;4128112;28;20126;-84
2021/06/01 03:26:28;;;;;;;3.22;2.15;;;15.70;96.10;;;;;;4122019;28;20462;-84
2021/06/01 03:28:29;;;;;;;5.05;2.22;;;15.70;95.00;;;;;;4120974;28;20110;-84
2021/06/01 03:30:30;;;;;;;3.70;2.40;;;15.70;95.10;;;;;;4139320;28;20069;-84
2021/06/01 03:32:30;;;;;;;3.92;2.35;;;15.70;95.50;;;;;;4134894;28;20041;-84
2021/06/01 03:34:31;;;;;;;3.58;2.35;;;15.70;96.10;;;;;;4120834;28;20046;-84
2021/06/01 03:36:32;;;;;;;4.90;2.40;;;15.60;96.60;;;;;;4139842;28;20037;-84
2021/06/01 03:38:35;;;;;;;3.78;2.20;;;15.60;96.00;;;;;;4120023;28;20036;-84
2021/06/01 03:40:37;;;;;;;4.18;2.42;;;15.60;96.50;;;;;;4138989;28;20044;-84
2021/06/01 03:42:37;;;;;;;2.87;2.30;;;15.60;96.90;;;;;;4125705;28;20499;-84
2021/06/01 03:44:40;;;;;;;3.10;2.28;;;15.60;97.10;;;;;;4134639;28;20272;-84
2021/06/01 03:46:41;;;;;;;3.50;2.28;;;15.60;97.70;;;;;;4141065;28;20048;-84
2021/06/01 03:48:42;;;;;;;3.63;2.42;;;15.60;98.30;;;;;;4141435;28;20403;-84
2021/06/01 03:50:43;;;;;;;3.33;2.22;;;15.50;97.40;;;;;;4139772;28;20096;-84
2021/06/01 03:52:44;;;;;;;3.33;2.40;;;15.60;97.30;;;;;;4121342;28;20035;-84
2021/06/01 03:54:45;;;;;;;3.53;2.37;;;15.60;98.40;;;;;;4118198;28;20031;-84
2021/06/01 03:56:46;;;;;;;3.72;2.50;;;15.50;98.40;;;;;;4134573;28;20038;-84
2021/06/01 03:58:46;;;;;;;5.40;2.65;;;15.50;98.40;;;;;;4136619;28;20054;-84
2021/06/01 04:00:47;;;;;;;5.45;2.47;;;15.50;98.50;;;;;;4140969;28;20046;-84
2021/06/01 04:02:48;;;;;;;4.25;2.40;;;15.50;98.60;;;;;;4119405;28;20038;-84
2021/06/01 04:04:49;;;;;;;3.08;2.30;;;15.50;98.50;;;;;;4132371;28;20562;-84
2021/06/01 04:06:50;;;;;;;6.27;3.10;;;15.50;99.00;;;;;;4140239;28;20502;-84
2021/06/01 04:08:50;;;;;;;4.40;2.60;;;15.50;99.90;;;;;;4120854;28;20038;-84
2021/06/01 04:10:51;;;;;;;4.20;2.60;;;15.50;99.90;;;;;;4129639;28;20447;-84
2021/06/01 04:12:52;;;;;;;8.40;3.10;;;15.40;99.90;;;;;;4139246;28;20030;-84
2021/06/01 04:14:52;;;;;;;6.75;3.00;;;15.40;99.90;;;;;;4138735;28;20034;-84
2021/06/01 04:16:55;;;;;;;5.35;2.63;;;15.40;99.90;;;;;;4121261;28;20409;-84
2021/06/01 04:18:55;;;;;;;;;;;15.40;99.90;;;;;;4141621;28;20487;-84
2021/06/01 04:20:56;;;;;;;4.30;2.70;;;15.40;99.90;;;;;;4130533;28;20131;-84
2021/06/01 04:22:57;;;;;;;4.13;2.70;;;15.40;99.90;;;;;;4121002;28;20038;-84
2021/06/01 04:24:57;;;;;;;5.22;2.65;;;15.40;99.90;;;;;;4130054;28;20069;-84
2021/06/01 04:26:59;;;;;;;3.15;2.25;;;15.40;99.90;;;;;;4130664;28;20034;-84
2021/06/01 04:29:00;;;;;;;4.85;3.10;;;15.40;99.90;;;;;;4135862;28;20044;-84
2021/06/01 04:31:01;;;;;;;4.07;2.60;;;15.40;99.90;;;;;;4130904;28;20034;-84
2021/06/01 04:33:02;;;;;;;6.82;2.83;;;15.40;99.90;;;;;;4137488;28;20405;-84
2021/06/01 04:35:03;;;;;;;7.43;2.47;;;15.40;99.90;;;;;;4115859;28;20467;-84
2021/06/01 04:37:04;;;;;;;3.67;2.38;;;15.30;99.90;;;;;;4121811;28;20299;-84
2021/06/01 04:39:05;;;;;;;4.60;2.92;;;15.30;99.90;;;;;;4127050;28;20534;-84
2021/06/01 04:41:06;;;;;;;3.80;2.67;;;15.30;99.90;;;;;;4123612;28;20071;-84
2021/06/01 04:43:07;;;;;;;4.03;2.50;;;15.40;99.90;;;;;;4128700;28;20472;-84
2021/06/01 04:45:08;;;;;;;3.50;2.47;;;15.30;99.90;;;;;;4139371;28;20042;-84
2021/06/01 04:47:09;;;;;;;4.05;2.35;;;15.30;99.90;;;;;;4116170;28;20084;-84
2021/06/01 04:49:10;;;;;;;4.78;2.85;;;15.40;99.90;;;;;;4124891;28;20438;-85
2021/06/01 04:51:18;;;;;;;4.43;2.63;;;15.40;99.90;;;;;;4148227;28;20069;-84
2021/06/01 04:53:18;;;;;;;4.50;2.70;;;15.40;99.90;;;;;;4142846;28;20108;-84
2021/06/01 04:55:19;;;;;;;6.30;3.00;;;15.40;99.90;;;;;;4126896;28;20546;-84
2021/06/01 04:57:19;;;;;;;7.72;3.47;;;15.50;99.90;;;;;;4131103;28;20038;-84
2021/06/01 04:59:20;;;;;;;5.25;2.72;;;15.50;99.90;;;;;;4123793;28;20570;-84
2021/06/01 05:01:22;;;;;;;4.20;2.83;;;15.50;99.90;;;;;;4126211;28;20034;-84
2021/06/01 05:03:23;;;;;;;5.30;3.10;;;15.50;99.90;;;;;;4136066;28;20062;-83
2021/06/01 05:05:34;;;;;;;6.68;3.25;;;15.50;99.90;;;;;;4129461;28;20446;-85
2021/06/01 05:07:35;;;;;;;3.53;2.80;;;15.60;99.90;;;;;;4127879;28;20078;-86
2021/06/01 05:09:35;;;;;;;6.00;3.13;;;15.50;99.90;;;;;;4131639;28;20034;-85
2021/06/01 05:11:36;;;;;;;5.28;3.28;;;15.60;99.90;;;;;;4143943;28;20671;-85
2021/06/01 05:13:37;;;;;;;5.65;3.20;;;15.70;99.90;;;;;;4132142;28;20027;-85
2021/06/01 05:15:37;;;;;;;4.47;3.22;;;15.70;99.90;;;;;;4150990;28;20060;-79
2021/06/01 05:17:44;;;;;;;4.35;3.13;;;15.70;99.90;;;;;;4126462;28;20034;-79
2021/06/01 05:19:44;;;;;;;6.43;3.72;;;15.80;99.90;;;;;;4141683;28;20053;-79
2021/06/01 05:21:45;;;;;;;4.32;3.30;;;15.80;99.90;;;;;;4128358;28;20093;-79
2021/06/01 05:23:46;;;;;;;6.00;3.40;;;15.80;99.90;;;;;;4136757;28;20679;-79
2021/06/01 05:25:46;;;;;;;5.07;3.08;;;15.80;99.90;;;;;;4130257;28;20026;-79
2021/06/01 05:27:58;;;;;;;4.57;3.15;;;15.80;99.90;;;;;;4136135;28;20717;-79
2021/06/01 05:30:06;;;;;;;4.88;3.10;;;15.90;99.90;;;;;;4142536;28;20457;-80
2021/06/01 05:34:37;;;;;;;5.53;3.40;;;16.00;99.90;;;;;;4139494;28;20064;-79
2021/06/01 05:36:39;;;;;;;4.50;3.28;;;16.00;99.90;;;;;;4116551;28;20042;-80
2021/06/01 05:38:39;;;;;;;6.53;3.20;;;16.00;99.90;;;;;;4131338;28;20046;-79
2021/06/01 05:40:41;;;;;;;6.53;3.92;;;16.10;99.90;;;;;;4147294;28;20037;-80
2021/06/01 05:42:42;;;;;;;4.53;3.10;;;16.10;99.90;;;;;;4128912;28;20124;-80
2021/06/01 05:44:45;;;;;;;5.75;3.63;;;16.20;99.90;;;;;;4128475;28;20045;-79
2021/06/01 05:46:47;;;;;;;3.65;2.65;;;16.20;99.90;;;;;;4125089;28;20044;-80
2021/06/01 05:48:48;;;;;;;5.32;3.10;;;16.30;99.90;;;;;;4128309;28;20045;-80
2021/06/01 05:50:48;;;;;;;7.00;3.40;;;16.40;99.90;;;;;;4125531;28;20553;-80
2021/06/01 05:52:49;;;;;;;3.78;2.83;;;16.70;99.90;;;;;;4145758;28;20382;-80
2021/06/01 05:54:50;;;;;;;5.13;3.00;;;17.00;99.90;;;;;;4124940;28;20540;-80
2021/06/01 05:56:50;;;;;;;4.18;2.55;;;17.50;99.90;;;;;;4126864;28;20038;-79
2021/06/01 05:58:51;;;;;;;4.60;2.60;;;17.80;99.90;;;;;;4140511;28;20037;-80
2021/06/01 06:00:52;;;;;;;5.90;2.53;;;18.40;99.90;;;;;;4140258;28;20030;-79
2021/06/01 06:02:52;;;;;;;5.32;2.90;;;18.90;99.20;;;;;;4141952;28;20034;-80
2021/06/01 06:04:53;;;;;;;5.43;2.65;;;19.40;93.90;;;;;;4141088;28;20033;-80
2021/06/01 06:06:54;;;;;;;3.78;2.17;;;19.80;92.40;;;;;;4144343;28;20573;-80
2021/06/01 06:08:54;;;;;;;3.80;2.28;;;20.20;91.00;;;;;;4128491;28;20042;-80
2021/06/01 06:10:55;;;;;;;4.90;2.35;;;20.70;89.60;;;;;;4144096;28;20575;-80
2021/06/01 06:12:55;;;;;;;3.75;2.30;;;21.10;84.10;;;;;;4144497;28;20042;-79
2021/06/01 06:14:57;;;;;;;3.75;2.25;;;21.50;85.50;;;;;;4141308;28;20109;-80
2021/06/01 06:17:05;;;;;;;5.10;2.40;;;21.90;82.70;;;;;;4127477;28;20065;-79
2021/06/01 06:19:06;;;;;;;10.65;3.10;;;22.30;78.60;;;;;;4123979;28;20577;-80
2021/06/01 06:21:07;;;;;;;3.08;2.30;;;22.50;71.10;;;;;;4140907;28;20053;-79
2021/06/01 06:23:08;;;;;;;8.55;2.75;;;22.40;72.70;;;;;;4126014;28;20034;-80
2021/06/01 06:25:11;;;;;;;5.10;2.90;;;22.60;72.60;;;;;;4142990;28;20093;-80
2021/06/01 06:27:12;;;;;;;8.13;3.10;;;22.70;71.10;;;;;;4145772;28;20272;-79
2021/06/01 06:29:13;;;;;;;4.28;2.28;;;22.60;67.60;;;;;;4143821;28;20045;-79
2021/06/01 06:31:13;;;;;;;6.93;3.42;;;22.60;68.20;;;;;;4145065;28;20405;-79
2021/06/01 06:33:14;;;;;;;3.75;2.17;;;22.30;67.10;;;;;;4127148;28;20038;-79
2021/06/01 06:35:14;;;;;;;5.80;2.80;;;22.20;68.30;;;;;;4144898;28;20030;-79
2021/06/01 06:37:15;;;;;;;7.25;3.13;;;22.00;68.20;;;;;;4143012;28;20089;-80
2021/06/01 06:39:16;;;;;;;4.30;2.85;;;21.90;67.50;;;;;;4144700;28;20030;-79
2021/06/01 06:41:17;;;;;;;4.20;2.70;;;21.80;68.70;;;;;;4128279;28;20076;-80
2021/06/01 06:43:18;;;;;;;6.68;2.95;;;21.60;69.30;;;;;;4125434;28;20491;-78
2021/06/01 06:45:19;;;;;;;9.35;3.00;;;21.40;69.50;;;;;;4142886;28;20041;-78
2021/06/01 06:49:40;;;;;;;3.80;2.70;;;21.10;71.20;;;;;;4147016;28;20038;-78
2021/06/01 06:51:41;;;;;;;5.07;2.42;;;21.10;71.00;;;;;;4142276;28;20056;-78
2021/06/01 06:53:51;;;;;;;5.45;2.35;;;21.10;72.90;;;;;;4141202;28;20030;-78
2021/06/01 06:55:51;;;;;;;8.30;2.65;;;21.10;73.00;;;;;;4143376;28;20509;-78
2021/06/01 06:57:52;;;;;;;4.38;2.28;;;21.10;73.60;;;;;;4144752;28;20034;-78
2021/06/01 06:59:53;;;;;;;6.22;2.95;;;21.10;72.30;;;;;;4143309;28;20370;-78
2021/06/01 07:01:53;;;;;;;4.95;2.63;;;21.00;71.30;;;;;;4141525;28;20030;-78
2021/06/01 07:03:55;;;;;;;5.03;2.60;;;20.80;70.10;;;;;;4126896;28;20039;-79
2021/06/01 07:05:55;;;;;;;4.40;2.30;;;20.80;71.60;;;;;;4143671;28;20482;-78
2021/06/01 07:07:57;;;;;;;5.40;2.65;;;20.80;72.20;;;;;;4141178;28;20117;-78
2021/06/01 07:09:58;;;;;;;5.40;2.40;;;20.70;74.00;;;;;;4145368;28;20133;-78
2021/06/01 07:11:58;;;;;;;4.28;2.10;;;20.70;76.80;;;;;;4144689;28;20139;-78
2021/06/01 07:14:09;;;;;;;4.55;2.05;;;20.60;74.30;;;;;;4147568;28;20118;-78
2021/06/01 07:16:11;;;;;;;5.20;2.58;;;20.40;73.70;;;;;;4143730;28;20026;-78
2021/06/01 07:18:13;;;;;;;3.97;2.20;;;20.40;74.40;;;;;;4145084;28;20037;-78
2021/06/01 07:20:17;;;;;;;4.17;2.07;;;20.30;74.40;;;;;;4143225;28;20915;-78
2021/06/01 07:22:23;;;;;;;3.03;2.10;;;20.30;75.10;;;;;;4146844;28;20033;-78
2021/06/01 07:24:30;;;;;;;3.50;1.70;;;20.30;75.20;;;;;;4143879;28;20176;-79
2021/06/01 07:26:31;;;;;;;3.67;2.08;;;20.20;74.50;;;;;;4146184;28;20034;-79
2021/06/01 07:28:32;;;;;;;3.92;2.10;;;20.30;74.40;;;;;;4141621;28;20414;-78
2021/06/01 07:30:32;;;;;;;2.67;1.85;;;20.30;74.60;;;;;;4140248;28;20553;-78
2021/06/01 07:32:33;;;;;;;2.75;1.80;;;20.30;73.80;;;;;;4143136;28;20030;-78
2021/06/01 07:34:33;;;;;;;3.13;1.88;;;20.30;75.50;;;;;;4138524;28;20037;-78
2021/06/01 07:36:35;;;;;;;2.88;2.08;;;20.30;75.50;;;;;;4139318;28;20033;-78
2021/06/01 07:38:36;;;;;;;5.57;1.83;;;20.30;75.50;;;;;;4132131;28;20499;-78
2021/06/01 07:40:39;;;;;;;3.47;2.00;;;20.30;74.90;;;;;;4143344;28;20030;-78
2021/06/01 07:42:39;;;;;;;3.55;2.00;;;20.30;75.60;;;;;;4136917;28;20400;-78
2021/06/01 07:44:40;;;;;;;5.38;2.10;;;20.30;75.00;;;;;;4142413;28;20120;-78
2021/06/01 07:46:41;;;;;;;4.75;2.00;;;20.30;75.90;;;;;;4139690;28;20038;-78
2021/06/01 07:48:41;;;;;;;3.83;2.15;;;20.30;76.00;;;;;;4140873;28;20693;-78
2021/06/01 07:50:42;;;;;;;3.38;1.85;;;20.20;75.90;;;;;;4142463;28;20116;-78
2021/06/01 07:52:42;;;;;;;5.63;2.45;;;20.30;75.90;;;;;;4139575;28;20034;-78
2021/06/01 07:54:43;;;;;;;2.88;1.75;;;20.30;75.00;;;;;;4140677;28;20030;-78
2021/06/01 07:56:44;;;;;;;5.43;2.17;;;20.30;75.20;;;;;;4137319;28;20040;-79
2021/06/01 07:58:48;;;;;;;5.10;2.22;;;20.40;76.40;;;;;;4141156;28;20072;-78
2021/06/01 08:00:48;;;;;;;2.15;1.60;;;20.40;75.90;;;;;;4140523;28;20608;-78
2021/06/01 08:02:50;;;;;;;2.60;1.80;;;20.50;76.80;;;;;;4140678;28;20041;-78
2021/06/01 08:04:52;;;;;;;4.28;2.33;;;20.50;76.90;;;;;;4141934;28;20036;-78
2021/06/01 08:06:53;;;;;;;2.58;1.83;;;20.50;75.80;;;;;;4139465;28;20041;-78
2021/06/01 08:08:53;;;;;;;2.15;1.70;;;20.60;74.60;;;;;;4140970;28;20556;-78
2021/06/01 08:10:54;;;;;;;2.30;1.73;;;20.60;74.40;;;;;;4141722;28;20486;-78
2021/06/01 08:12:56;;;;;;;3.70;2.17;;;20.70;76.00;;;;;;4139138;28;20052;-78
2021/06/01 08:14:58;;;;;;;3.97;2.00;;;20.70;75.40;;;;;;4123228;28;20378;-78
2021/06/01 08:16:59;;;;;;;3.10;1.42;;;20.80;75.00;;;;;;4141023;28;20527;-78
2021/06/01 08:19:14;;;;;;;2.80;2.00;;;20.80;74.10;;;;;;4120976;28;20031;-78
2021/06/01 08:21:17;;;;;;;3.10;1.98;;;20.90;74.00;;;;;;4136189;28;20041;-79
2021/06/01 08:23:17;;;;;;;2.75;1.70;;;20.90;72.80;;;;;;4141465;28;20052;-78
2021/06/01 08:25:18;;;;;;;3.65;1.90;;;21.00;72.70;;;;;;4140628;28;20109;-78
2021/06/01 08:27:18;;;;;;;2.42;1.55;;;21.00;73.20;;;;;;4144274;28;20038;-78
2021/06/01 08:29:19;;;;;;;4.72;2.15;;;21.10;72.10;;;;;;4142161;28;20167;-78
2021/06/01 08:31:20;;;;;;;2.35;1.80;;;21.20;72.70;;;;;;4136230;28;20030;-82
2021/06/01 08:33:21;;;;;;;2.83;1.90;;;21.20;71.90;;;;;;4141595;28;20033;-78
2021/06/01 08:35:22;;;;;;;3.22;1.70;;;21.30;70.00;;;;;;4145189;28;20038;-78
2021/06/01 08:37:23;;;;;;;3.40;1.95;;;21.40;69.10;;;;;;4142993;28;20036;-78
2021/06/01 08:39:26;;;;;;;3.95;2.05;;;21.50;69.00;;;;;;4144115;28;20033;-78
2021/06/01 08:41:26;;;;;;;9.75;2.15;;;21.50;66.60;;;;;;4142055;28;20091;-78
2021/06/01 08:43:27;;;;;;;3.15;2.10;;;21.60;66.60;;;;;;4126985;28;20112;-78
2021/06/01 08:45:30;;;;;;;2.40;1.73;;;21.70;65.80;;;;;;4141545;28;20172;-79
2021/06/01 08:47:31;;;;;;;2.50;1.85;;;21.80;67.40;;;;;;4143297;28;20030;-78
2021/06/01 08:49:32;;;;;;;6.53;2.25;;;21.90;65.40;;;;;;4141585;28;20048;-78
2021/06/01 08:51:33;;;;;;;2.83;2.03;;;22.00;65.40;;;;;;4138246;28;20091;-78
2021/06/01 08:53:34;;;;;;;6.50;2.58;;;22.10;66.10;;;;;;4142699;28;20537;-78
2021/06/01 08:55:35;;;;;;;3.03;1.95;;;22.20;65.70;;;;;;4145584;28;20592;-78
2021/06/01 08:57:37;;;;;;;3.10;1.65;;;22.20;61.60;;;;;;4137918;28;20065;-78
2021/06/01 08:59:40;;;;;;;3.95;2.08;;;22.40;62.00;;;;;;4141510;28;20532;-79
2021/06/01 09:01:44;;;;;;;6.47;2.10;;;22.50;61.80;;;;;;4140336;28;20072;-79
2021/06/01 09:03:53;;;;;;;2.47;1.92;;;22.60;63.30;;;;;;4145911;28;20046;-79
2021/06/01 09:06:03;;;;;;;2.72;1.83;;;22.70;59.00;;;;;;4143107;28;20038;-79
2021/06/01 09:08:09;;;;;;;2.60;1.77;;;22.70;57.60;;;;;;4143307;28;20049;-79
2021/06/01 09:12:45;;;;;;;2.90;1.83;;;22.90;58.30;;;;;;4141726;28;20041;-79
2021/06/01 09:15:20;;;;;;;4.22;2.00;;;23.00;58.60;;;;;;4139751;28;20078;-79
2021/06/01 09:21:50;;;;;;;4.00;1.90;;;23.30;55.80;;;;;;4140344;28;20510;-79
2021/06/01 09:23:52;;;;;;;2.15;1.48;;;23.40;57.20;;;;;;4124991;28;20065;-78
2021/06/01 09:25:59;;;;;;;4.57;2.35;;;23.40;58.10;;;;;;4142453;28;20124;-78
2021/06/01 09:28:02;;;;;;;3.60;1.90;;;23.50;56.00;;;;;;4142866;28;20799;-79
2021/06/01 09:30:03;;;;;;;3.70;1.73;;;23.60;52.80;;;;;;4136486;28;20699;-79
2021/06/01 09:32:08;;;;;;;4.47;1.90;;;23.70;53.00;;;;;;4140047;28;20042;-79
2021/06/01 09:34:09;;;;;;;2.53;1.95;;;23.80;52.60;;;;;;4138070;28;20068;-79
2021/06/01 09:36:10;;;;;;;4.07;1.80;;;23.70;52.70;;;;;;4140492;28;20092;-78
2021/06/01 09:38:11;;;;;;;3.60;2.00;;;23.80;52.80;;;;;;4140951;28;20049;-78
2021/06/01 09:40:16;;;;;;;2.45;1.80;;;23.90;53.60;;;;;;4139711;28;20352;-78
2021/06/01 09:42:28;;;;;;;2.47;1.30;;;24.00;53.50;;;;;;4142789;28;20109;-78
2021/06/01 09:44:29;;;;;;;2.72;1.48;;;24.00;51.50;;;;;;4145921;28;20174;-78
2021/06/01 09:46:38;;;;;;;3.03;1.75;;;24.10;53.00;;;;;;4144102;28;20125;-78
2021/06/01 09:48:38;;;;;;;2.38;1.60;;;24.10;52.60;;;;;;4144266;28;20385;-78
2021/06/01 09:50:59;;;;;;;2.50;1.50;;;24.20;53.20;;;;;;4144113;28;20025;-78
2021/06/01 09:53:04;;;;;;;2.60;1.90;;;24.30;52.60;;;;;;4145459;28;20576;-78
2021/06/01 09:55:23;;;;;;;5.78;2.10;;;24.20;50.80;;;;;;4144234;28;20033;-78
2021/06/01 09:57:27;;;;;;;3.95;1.40;;;24.30;50.80;;;;;;4145822;28;20566;-78
2021/06/01 09:59:27;;;;;;;2.78;1.70;;;24.30;51.80;;;;;;4146841;28;20041;-78
2021/06/01 10:01:34;;;;;;;2.20;1.55;;;24.30;51.20;;;;;;4142907;28;20034;-78
2021/06/01 10:03:51;;;;;;;2.05;1.50;;;24.30;51.40;;;;;;4144831;28;20515;-78
2021/06/01 10:05:57;;;;;;;4.65;1.75;;;24.40;52.30;;;;;;4142710;28;20065;-78
2021/06/01 10:08:08;;;;;;;3.15;1.70;;;24.50;52.40;;;;;;4145462;28;20038;-78
2021/06/01 10:10:17;;;;;;;4.78;1.90;;;24.50;51.60;;;;;;4145081;28;20034;-78
2021/06/01 10:12:17;;;;;;;2.35;1.67;;;24.60;51.80;;;;;;4142294;28;20045;-78
2021/06/01 10:14:18;;;;;;;1.30;1.13;;;24.60;51.50;;;;;;4143627;28;20042;-78
2021/06/01 10:16:18;;;;;;;2.35;1.55;;;24.70;53.60;;;;;;4141211;28;20035;-78
2021/06/01 10:18:20;;;;;;;3.60;1.90;;;24.70;51.90;;;;;;4144671;28;20521;-78
2021/06/01 10:20:23;;;;;;;2.83;1.73;;;24.80;52.20;;;;;;4145931;28;20026;-78
2021/06/01 10:22:23;;;;;;;4.53;2.58;;;24.80;52.70;;;;;;4146994;28;20029;-78
2021/06/01 10:24:24;;;;;;;5.32;1.95;;;24.80;52.90;;;;;;4129201;28;20479;-78
2021/06/01 10:26:28;;;;;;;2.90;2.05;;;24.80;53.10;;;;;;4145604;28;20127;-79
2021/06/01 10:30:32;;;;;;;1.95;1.50;;;24.90;53.20;;;;;;4145903;28;20045;-78
2021/06/01 10:32:42;;;;;;;1.95;1.52;;;24.90;52.50;;;;;;4142634;28;20515;-78
2021/06/01 10:34:43;;;;;;;4.13;1.50;;;24.90;51.60;;;;;;4142001;28;20214;-78
2021/06/01 10:51:30;;;;;;;3.47;1.40;;;25.40;53.90;;;;;;4144058;28;20113;-79
2021/06/01 10:53:41;;;;;;;3.15;1.73;;;25.30;49.20;;;;;;4144347;28;20377;-78
2021/06/01 10:56:01;;;;;;;1.98;1.67;;;25.20;47.80;;;;;;4143678;28;20442;-78
2021/06/01 10:58:01;;;;;;;1.88;1.50;;;25.20;51.70;;;;;;4140213;28;20129;-78
2021/06/01 11:02:12;;;;;;;2.63;1.70;;;25.30;50.50;;;;;;4145706;28;20050;-78
2021/06/01 11:04:19;;;;;;;2.70;1.80;;;25.40;49.60;;;;;;4140570;28;20492;-78
2021/06/01 11:06:21;;;;;;;1.92;1.33;;;25.40;50.80;;;;;;4142972;28;20152;-79
2021/06/01 11:08:43;;;;;;;1.92;1.55;;;25.40;48.50;;;;;;4124141;28;20035;-78
2021/06/01 11:10:46;;;;;;;3.95;1.73;;;25.50;48.80;;;;;;4138557;28;20484;-78
2021/06/01 11:12:47;;;;;;;3.38;1.80;;;25.50;47.60;;;;;;4144912;28;20042;-78
2021/06/01 11:14:49;;;;;;;3.58;1.50;;;25.50;47.60;;;;;;4140650;28;20034;-78